createdAt,value
2017-11-27T00:01:41.531Z,4.40
2017-11-27T00:04:08.254Z,5.97
2017-11-27T00:06:34.978Z,4.75
2017-11-27T00:09:01.739Z,4.90
2017-11-27T00:11:28.464Z,6.22
2017-11-27T00:13:55.186Z,4.30
2017-11-27T00:16:21.922Z,4.45
2017-11-27T00:18:48.642Z,4.50
2017-11-27T00:21:15.409Z,5.50
2017-11-27T00:23:42.181Z,6.95
2017-11-27T00:26:08.960Z,6.32
2017-11-27T00:28:35.685Z,6.68
2017-11-27T00:31:02.416Z,5.30
2017-11-27T00:33:29.165Z,7.75
2017-11-27T00:35:55.935Z,5.55
2017-11-27T00:38:22.658Z,9.23
2017-11-27T00:40:49.379Z,7.15
2017-11-27T00:43:16.139Z,6.80
2017-11-27T00:45:42.861Z,7.68
2017-11-27T00:48:09.579Z,6.28
2017-11-27T00:50:36.323Z,6.30
2017-11-27T00:53:03.073Z,7.37
2017-11-27T00:55:29.820Z,6.43
2017-11-27T00:57:56.584Z,8.18
2017-11-27T01:00:23.345Z,10.55
2017-11-27T01:02:50.077Z,6.87
2017-11-27T01:05:16.788Z,8.20
2017-11-27T01:07:43.524Z,7.93
2017-11-27T01:10:10.252Z,9.63
2017-11-27T01:12:36.975Z,7.32
2017-11-27T01:15:03.745Z,8.63
2017-11-27T01:17:30.487Z,6.90
2017-11-27T01:19:57.221Z,7.55
2017-11-27T01:22:23.944Z,11.20
2017-11-27T01:24:50.665Z,8.23
2017-11-27T01:27:17.395Z,9.35
2017-11-27T01:29:44.115Z,6.55
2017-11-27T01:32:10.861Z,6.40
2017-11-27T01:34:37.589Z,9.65
2017-11-27T01:37:04.373Z,7.65
2017-11-27T01:39:31.089Z,9.10
2017-11-27T01:41:57.850Z,7.82
2017-11-27T01:44:24.600Z,9.75
2017-11-27T01:46:51.334Z,10.50
2017-11-27T01:49:18.073Z,7.85
2017-11-27T01:51:44.788Z,8.07
2017-11-27T01:54:11.533Z,7.03
2017-11-27T01:56:38.263Z,6.05
2017-11-27T01:59:05.029Z,7.97
2017-11-27T02:01:31.754Z,7.60
2017-11-27T02:03:58.481Z,9.85
2017-11-27T02:06:25.203Z,5.70
2017-11-27T02:08:51.961Z,8.10
2017-11-27T02:11:18.684Z,8.23
2017-11-27T02:13:45.415Z,7.30
2017-11-27T02:16:12.136Z,8.07
2017-11-27T02:18:38.870Z,6.60
2017-11-27T02:21:05.599Z,5.20
2017-11-27T02:23:32.340Z,6.43
2017-11-27T02:25:59.055Z,5.50
2017-11-27T02:28:25.795Z,5.43
2017-11-27T02:30:52.511Z,5.53
2017-11-27T02:33:19.235Z,6.82
2017-11-27T02:35:45.978Z,5.43
2017-11-27T02:38:12.702Z,8.18
2017-11-27T02:40:39.418Z,4.25
2017-11-27T02:43:06.158Z,5.75
2017-11-27T02:45:32.920Z,6.00
2017-11-27T02:47:59.645Z,9.15
2017-11-27T02:50:26.395Z,5.78
2017-11-27T02:52:53.124Z,6.05
2017-11-27T02:55:19.853Z,6.00
2017-11-27T02:57:46.631Z,7.03
2017-11-27T03:00:13.344Z,6.72
2017-11-27T03:02:40.058Z,5.93
2017-11-27T03:05:06.815Z,6.57
2017-11-27T03:07:33.552Z,4.30
2017-11-27T03:10:00.279Z,6.32
2017-11-27T03:12:27.004Z,5.40
2017-11-27T03:14:53.715Z,6.57
2017-11-27T03:17:20.451Z,6.65
2017-11-27T03:19:47.182Z,7.12
2017-11-27T03:22:13.887Z,6.15
2017-11-27T03:24:40.596Z,6.10
2017-11-27T03:27:07.310Z,5.40
2017-11-27T03:29:34.054Z,4.87
2017-11-27T03:32:00.789Z,6.37
2017-11-27T03:34:27.552Z,6.57
2017-11-27T03:36:54.362Z,7.47
2017-11-27T03:39:21.123Z,5.25
2017-11-27T03:41:47.858Z,5.70
2017-11-27T03:44:14.575Z,6.05
2017-11-27T03:46:41.287Z,5.20
2017-11-27T03:49:08.087Z,6.55
2017-11-27T03:51:34.803Z,5.57
2017-11-27T03:54:01.548Z,7.25
2017-11-27T03:56:28.391Z,5.05
2017-11-27T03:58:55.107Z,5.57
2017-11-27T04:01:21.836Z,6.05
2017-11-27T04:03:48.560Z,5.47
2017-11-27T04:06:15.287Z,10.23
2017-11-27T04:08:42.020Z,6.22
2017-11-27T04:11:08.767Z,7.05
2017-11-27T04:13:35.487Z,5.22
2017-11-27T04:16:02.252Z,5.30
2017-11-27T04:18:29.015Z,6.82
2017-11-27T04:20:55.734Z,5.12
2017-11-27T04:23:22.441Z,6.15
2017-11-27T04:25:49.177Z,4.60
2017-11-27T04:28:15.906Z,7.18
2017-11-27T04:30:42.643Z,5.25
2017-11-27T04:33:09.398Z,4.20
2017-11-27T04:35:36.143Z,6.65
2017-11-27T04:38:02.885Z,5.18
2017-11-27T04:40:29.670Z,5.35
2017-11-27T04:42:56.435Z,12.25
2017-11-27T04:45:23.164Z,5.25
2017-11-27T04:47:49.880Z,8.13
2017-11-27T04:50:16.601Z,5.07
2017-11-27T04:52:43.334Z,6.05
2017-11-27T04:55:10.052Z,6.78
2017-11-27T04:57:36.758Z,4.85
2017-11-27T05:00:03.508Z,5.62
2017-11-27T05:02:30.252Z,5.85
2017-11-27T05:04:56.985Z,5.70
2017-11-27T05:07:23.704Z,7.55
2017-11-27T05:09:50.445Z,5.78
2017-11-27T05:12:17.161Z,7.82
2017-11-27T05:14:43.875Z,8.48
2017-11-27T05:17:10.602Z,6.22
2017-11-27T05:19:37.341Z,5.03
2017-11-27T05:22:04.100Z,4.65
2017-11-27T05:24:30.827Z,7.30
2017-11-27T05:26:57.526Z,5.45
2017-11-27T05:29:24.235Z,5.80
2017-11-27T05:31:50.946Z,5.35
2017-11-27T05:34:17.678Z,5.68
2017-11-27T05:36:44.388Z,6.43
2017-11-27T05:39:11.132Z,5.45
2017-11-27T05:41:37.863Z,6.07
2017-11-27T05:44:04.587Z,10.60
2017-11-27T05:46:31.891Z,6.50
2017-11-27T05:48:58.611Z,9.40
2017-11-27T05:51:25.335Z,9.80
2017-11-27T05:53:52.051Z,9.00
2017-11-27T05:56:18.778Z,5.90
2017-11-27T05:58:45.511Z,7.07
2017-11-27T06:01:12.376Z,5.47
2017-11-27T06:03:39.086Z,6.37
2017-11-27T06:06:05.839Z,7.55
2017-11-27T06:08:32.558Z,6.80
2017-11-27T06:10:59.276Z,5.82
2017-11-27T06:13:26.007Z,6.97
2017-11-27T06:15:52.716Z,8.05
2017-11-27T06:18:19.453Z,5.47
2017-11-27T06:20:46.163Z,5.85
2017-11-27T06:23:12.879Z,4.30
2017-11-27T06:25:39.598Z,8.95
2017-11-27T06:28:06.301Z,7.18
2017-11-27T06:30:33.031Z,4.72
2017-11-27T06:32:59.757Z,11.35
2017-11-27T06:35:26.460Z,7.10
2017-11-27T06:37:53.169Z,6.05
2017-11-27T06:40:19.880Z,7.53
2017-11-27T06:42:46.621Z,7.93
2017-11-27T06:45:13.352Z,6.20
2017-11-27T06:47:40.073Z,7.40
2017-11-27T06:50:06.799Z,10.40
2017-11-27T06:52:33.509Z,5.28
2017-11-27T06:55:00.220Z,7.22
2017-11-27T06:57:26.947Z,8.05
2017-11-27T06:59:53.656Z,19.73
2017-11-27T07:02:20.363Z,18.55
2017-11-27T07:04:47.080Z,30.85
2017-11-27T07:07:13.872Z,17.42
2017-11-27T07:09:40.595Z,19.95
2017-11-27T07:12:07.314Z,12.52
2017-11-27T07:14:34.048Z,12.13
2017-11-27T07:17:00.755Z,14.45
2017-11-27T07:19:27.478Z,16.10
2017-11-27T07:21:54.193Z,13.50
2017-11-27T07:24:20.909Z,6.82
2017-11-27T07:26:47.624Z,12.02
2017-11-27T07:29:14.358Z,8.15
2017-11-27T07:31:41.077Z,7.40
2017-11-27T07:34:07.787Z,8.23
2017-11-27T07:36:34.511Z,5.93
2017-11-27T07:39:06.983Z,8.35
2017-11-27T07:41:33.735Z,7.32
2017-11-27T07:44:00.644Z,8.98
2017-11-27T07:46:27.369Z,10.98
2017-11-27T07:48:54.088Z,11.80
2017-11-27T07:51:20.800Z,8.77
2017-11-27T07:53:47.520Z,11.98
2017-11-27T07:56:14.241Z,9.00
2017-11-27T07:58:40.972Z,14.32
2017-11-27T08:01:07.692Z,10.40
2017-11-27T08:03:34.424Z,12.30
2017-11-27T08:06:01.171Z,15.40
2017-11-27T08:08:27.895Z,13.40
2017-11-27T08:10:54.611Z,18.37
2017-11-27T08:13:21.334Z,13.50
2017-11-27T08:15:48.093Z,18.70
2017-11-27T08:18:14.865Z,12.85
2017-11-27T08:20:41.591Z,14.60
2017-11-27T08:23:08.311Z,11.10
2017-11-27T08:25:35.036Z,16.10
2017-11-27T08:28:01.757Z,20.15
2017-11-27T08:30:28.480Z,13.15
2017-11-27T08:32:55.214Z,12.45
2017-11-27T08:35:21.963Z,14.82
2017-11-27T08:37:48.684Z,10.07
2017-11-27T08:40:15.400Z,17.42
2017-11-27T08:42:42.140Z,11.68
2017-11-27T08:45:08.890Z,13.33
2017-11-27T08:47:35.638Z,20.00
2017-11-27T08:50:02.373Z,14.13
2017-11-27T08:52:29.134Z,16.30
2017-11-27T08:54:55.875Z,15.77
2017-11-27T08:57:22.627Z,18.17
2017-11-27T08:59:50.340Z,16.50
2017-11-27T09:02:17.067Z,16.00
2017-11-27T09:04:43.789Z,13.33
2017-11-27T09:07:10.506Z,15.43
2017-11-27T09:09:37.272Z,14.83
2017-11-27T09:12:04.007Z,15.53
2017-11-27T09:14:30.738Z,13.40
2017-11-27T09:16:57.468Z,20.73
2017-11-27T09:19:24.204Z,16.00
2017-11-27T09:21:50.947Z,16.90
2017-11-27T09:24:17.665Z,17.83
2017-11-27T09:26:44.412Z,22.57
2017-11-27T09:29:11.136Z,14.90
2017-11-27T09:31:37.896Z,13.00
2017-11-27T09:34:04.647Z,17.20
2017-11-27T09:36:31.387Z,10.80
2017-11-27T09:38:58.106Z,17.67
2017-11-27T09:41:24.835Z,12.30
2017-11-27T09:43:51.573Z,16.27
2017-11-27T09:46:18.288Z,10.27
2017-11-27T09:48:44.999Z,13.83
2017-11-27T09:51:11.749Z,10.57
2017-11-27T09:53:38.492Z,15.23
2017-11-27T09:56:05.221Z,13.60
2017-11-27T09:58:31.955Z,9.57
2017-11-27T10:00:58.668Z,9.43
2017-11-27T10:03:25.415Z,14.53
2017-11-27T10:05:52.128Z,6.90
2017-11-27T10:08:18.846Z,7.13
2017-11-27T10:10:45.655Z,2.50
2017-11-27T10:13:12.363Z,1.80
2017-11-27T10:15:39.085Z,3.10
2017-11-27T10:18:05.842Z,7.03
2017-11-27T10:20:32.578Z,1.30
2017-11-27T10:22:59.327Z,1.80
2017-11-27T10:25:26.067Z,1.47
2017-11-27T10:27:52.788Z,1.00
2017-11-27T10:30:19.503Z,2.93
2017-11-27T10:32:46.431Z,1.37
2017-11-27T10:35:13.144Z,1.90
2017-11-27T10:37:39.872Z,2.03
2017-11-27T10:40:06.620Z,1.47
2017-11-27T10:42:33.328Z,2.03
2017-11-27T10:45:00.049Z,1.50
2017-11-27T10:47:26.781Z,0.63
2017-11-27T10:49:53.486Z,0.90
2017-11-27T10:52:20.210Z,1.37
2017-11-27T10:54:46.979Z,3.23
2017-11-27T10:57:13.694Z,7.70
2017-11-27T10:59:40.411Z,2.63
2017-11-27T11:02:07.142Z,2.10
2017-11-27T11:04:33.872Z,1.87
2017-11-27T11:07:00.594Z,2.60
2017-11-27T11:09:27.300Z,2.03
2017-11-27T11:11:54.010Z,1.63
2017-11-27T11:14:36.585Z,0.80
2017-11-27T11:17:03.297Z,1.23
2017-11-27T11:19:30.049Z,2.20
2017-11-27T11:21:56.813Z,0.70
2017-11-27T11:24:23.559Z,1.10
2017-11-27T11:26:50.409Z,0.90
2017-11-27T11:29:17.133Z,0.80
2017-11-27T11:31:43.836Z,1.50
2017-11-27T11:34:10.581Z,1.03
2017-11-27T11:36:37.281Z,1.47
2017-11-27T11:39:04.049Z,1.20
2017-11-27T11:41:30.777Z,1.20
2017-11-27T11:43:57.491Z,0.83
2017-11-27T11:46:24.248Z,1.43
2017-11-27T11:48:50.968Z,1.83
2017-11-27T11:51:17.697Z,1.50
2017-11-27T11:53:44.393Z,0.90
2017-11-27T11:56:11.154Z,0.80
2017-11-27T11:58:37.910Z,2.40
2017-11-27T12:01:04.765Z,1.00
2017-11-27T12:03:31.498Z,1.30
2017-11-27T12:05:58.232Z,1.20
2017-11-27T12:08:24.964Z,2.40
2017-11-27T12:10:51.720Z,2.00
2017-11-27T12:13:18.449Z,2.20
2017-11-27T12:15:45.180Z,1.20
2017-11-27T12:18:11.949Z,11.00
2017-11-27T12:20:38.683Z,35.50
2017-11-27T12:23:11.209Z,1.70
2017-11-27T12:25:43.756Z,1.00
2017-11-27T12:28:10.497Z,1.40
2017-11-27T12:30:37.222Z,4.13
2017-11-27T12:33:04.000Z,1.50
2017-11-27T12:35:30.764Z,2.10
2017-11-27T12:37:57.477Z,0.90
2017-11-27T12:40:24.259Z,15.73
2017-11-27T12:42:51.022Z,10.40
2017-11-27T12:45:17.746Z,7.43
2017-11-27T12:47:44.496Z,2.43
2017-11-27T12:50:11.235Z,2.53
2017-11-27T12:52:38.102Z,1.47
2017-11-27T12:55:04.865Z,1.57
2017-11-27T12:57:31.576Z,1.30
2017-11-27T12:59:58.302Z,1.43
2017-11-27T13:02:25.038Z,6.43
2017-11-27T13:04:51.778Z,1.20
2017-11-27T13:07:18.497Z,1.20
2017-11-27T13:09:45.227Z,5.10
2017-11-27T13:12:11.979Z,2.00
2017-11-27T13:14:38.692Z,1.47
2017-11-27T13:17:05.414Z,3.13
2017-11-27T13:19:32.135Z,1.40
2017-11-27T13:21:58.847Z,2.33
2017-11-27T13:24:25.558Z,2.23
2017-11-27T13:26:52.270Z,2.00
2017-11-27T13:29:18.976Z,5.17
2017-11-27T13:31:45.702Z,2.80
2017-11-27T13:34:12.426Z,1.20
2017-11-27T13:36:39.176Z,50.67
2017-11-27T13:39:05.924Z,1.30
2017-11-27T13:41:32.636Z,1.63
2017-11-27T13:43:59.364Z,13.90
2017-11-27T13:46:26.131Z,17.43
2017-11-27T13:48:52.868Z,2.40
2017-11-27T13:51:19.583Z,3.40
2017-11-27T13:53:46.303Z,7.47
2017-11-27T13:56:13.113Z,2.00
2017-11-27T13:58:39.862Z,8.83
2017-11-27T14:01:06.591Z,3.30
2017-11-27T14:03:33.310Z,2.00
2017-11-27T14:06:00.043Z,1.60
2017-11-27T14:08:26.755Z,1.20
2017-11-27T14:10:53.469Z,4.50
2017-11-27T14:13:20.193Z,1.97
2017-11-27T14:15:46.925Z,2.20
2017-11-27T14:18:13.641Z,1.33
2017-11-27T14:20:40.359Z,1.80
2017-11-27T14:23:07.076Z,1.53
2017-11-27T14:25:33.825Z,2.77
2017-11-27T14:28:00.578Z,2.77
2017-11-27T14:30:27.283Z,3.20
2017-11-27T14:32:54.024Z,4.20
2017-11-27T14:35:20.762Z,3.17
2017-11-27T14:37:47.470Z,3.40
2017-11-27T14:40:14.188Z,2.60
2017-11-27T14:42:40.915Z,5.20
2017-11-27T14:45:07.655Z,8.40
2017-11-27T14:47:34.417Z,4.90
2017-11-27T14:50:01.145Z,3.50
2017-11-27T14:52:27.886Z,3.97
2017-11-27T14:54:54.626Z,2.27
2017-11-27T14:57:21.372Z,4.50
2017-11-27T14:59:48.128Z,8.60
2017-11-27T15:02:14.858Z,3.00
2017-11-27T15:04:41.607Z,4.23
2017-11-27T15:07:08.343Z,2.67
2017-11-27T15:09:35.083Z,2.97
2017-11-27T15:12:01.812Z,1.80
2017-11-27T15:14:28.585Z,5.13
2017-11-27T15:16:55.320Z,2.27
2017-11-27T15:19:22.069Z,6.43
2017-11-27T15:21:48.833Z,2.00
2017-11-27T15:24:15.591Z,3.27
2017-11-27T15:26:42.334Z,2.73
2017-11-27T15:29:09.063Z,3.63
2017-11-27T15:31:35.839Z,2.00
2017-11-27T15:34:02.665Z,4.30
2017-11-27T15:36:29.430Z,2.33
2017-11-27T15:38:56.180Z,1.87
2017-11-27T15:41:22.924Z,2.50
2017-11-27T15:43:49.668Z,1.77
2017-11-27T15:46:16.403Z,1.80
2017-11-27T15:48:43.139Z,2.07
2017-11-27T15:51:09.876Z,2.80
2017-11-27T15:53:56.405Z,1.83
2017-11-27T15:56:23.213Z,2.03
2017-11-27T15:58:49.990Z,1.37
2017-11-27T16:01:16.791Z,1.63
2017-11-27T16:03:43.550Z,1.57
2017-11-27T16:06:10.291Z,1.77
2017-11-27T16:08:37.034Z,1.13
2017-11-27T16:11:03.826Z,2.23
2017-11-27T16:13:30.597Z,1.93
2017-11-27T16:15:57.328Z,3.00
2017-11-27T16:18:24.082Z,3.37
2017-11-27T16:20:50.831Z,1.27
2017-11-27T16:23:17.546Z,3.43
2017-11-27T16:25:44.305Z,1.30
2017-11-27T16:28:11.044Z,2.27
2017-11-27T16:30:37.780Z,2.85
2017-11-27T16:33:04.610Z,1.40
2017-11-27T16:35:31.328Z,2.20
2017-11-27T16:37:58.063Z,2.40
2017-11-27T16:40:24.986Z,2.33
2017-11-27T16:42:51.792Z,3.33
2017-11-27T16:45:18.541Z,2.23
2017-11-27T16:47:45.284Z,1.50
2017-11-27T16:50:12.027Z,1.43
2017-11-27T16:52:38.772Z,3.00
2017-11-27T16:55:05.519Z,4.13
2017-11-27T16:57:32.275Z,6.87
2017-11-27T16:59:59.029Z,5.20
2017-11-27T17:02:25.792Z,5.90
2017-11-27T17:04:52.563Z,6.00
2017-11-27T17:07:19.337Z,6.10
2017-11-27T17:09:46.101Z,5.17
2017-11-27T17:12:12.860Z,4.63
2017-11-27T17:14:39.627Z,7.20
2017-11-27T17:17:06.387Z,7.30
2017-11-27T17:19:33.149Z,9.00
2017-11-27T17:21:59.928Z,7.40
2017-11-27T17:24:26.729Z,12.93
2017-11-27T17:26:53.487Z,22.33
2017-11-27T17:29:20.259Z,26.53
2017-11-27T17:31:47.557Z,21.70
2017-11-27T17:34:14.340Z,17.40
2017-11-27T17:36:41.144Z,15.80
2017-11-27T17:39:07.937Z,15.40
2017-11-27T17:41:34.774Z,18.73
2017-11-27T17:44:01.521Z,4.40
2017-11-27T17:46:28.294Z,4.70
2017-11-27T17:48:55.054Z,4.93
2017-11-27T17:51:21.856Z,16.23
2017-11-27T17:53:48.649Z,4.87
2017-11-27T17:56:15.414Z,5.68
2017-11-27T17:58:42.158Z,10.00
2017-11-27T18:01:08.908Z,7.70
2017-11-27T18:03:35.675Z,6.73
2017-11-27T18:06:02.488Z,8.15
2017-11-27T18:08:29.222Z,21.00
2017-11-27T18:10:55.989Z,7.80
2017-11-27T18:13:22.747Z,11.23
2017-11-27T18:15:49.511Z,8.90
2017-11-27T18:18:16.553Z,19.87
2017-11-27T18:20:43.464Z,6.60
2017-11-27T18:23:10.237Z,6.78
2017-11-27T18:25:37.007Z,6.05
2017-11-27T18:28:03.797Z,6.50
2017-11-27T18:30:30.583Z,10.23
2017-11-27T18:32:57.354Z,18.62
2017-11-27T18:35:24.132Z,17.35
2017-11-27T18:37:50.896Z,18.98
2017-11-27T18:40:17.673Z,22.30
2017-11-27T18:42:44.438Z,21.83
2017-11-27T18:45:11.252Z,24.83
2017-11-27T18:47:38.045Z,16.15
2017-11-27T18:50:06.078Z,22.13
2017-11-27T18:52:33.757Z,11.98
2017-11-27T18:55:00.593Z,11.85
2017-11-27T18:57:27.364Z,13.00
2017-11-27T18:59:54.153Z,14.25
2017-11-27T19:02:20.921Z,17.70
2017-11-27T19:04:47.689Z,10.00
2017-11-27T19:07:14.442Z,12.37
2017-11-27T19:09:41.203Z,17.10
2017-11-27T19:12:07.964Z,10.00
2017-11-27T19:14:34.749Z,10.57
2017-11-27T19:17:02.528Z,8.85
2017-11-27T19:19:29.342Z,11.98
2017-11-27T19:21:56.180Z,10.23
2017-11-27T19:24:22.974Z,9.80
2017-11-27T19:26:49.761Z,6.60
2017-11-27T19:29:16.552Z,7.95
2017-11-27T19:31:43.325Z,8.60
2017-11-27T19:34:10.113Z,9.10
2017-11-27T19:36:36.884Z,8.60
2017-11-27T19:39:03.648Z,13.68
2017-11-27T19:41:30.442Z,12.77
2017-11-27T19:43:57.239Z,11.25
2017-11-27T19:46:24.016Z,9.45
2017-11-27T19:48:50.810Z,12.73
2017-11-27T19:51:17.582Z,13.80
2017-11-27T19:53:44.345Z,15.95
2017-11-27T19:56:11.157Z,15.88
2017-11-27T19:58:37.944Z,11.88
2017-11-27T20:01:04.737Z,11.12
2017-11-27T20:03:31.529Z,10.15
2017-11-27T20:05:58.339Z,16.67
2017-11-27T20:08:25.130Z,14.77
2017-11-27T20:10:51.909Z,9.48
2017-11-27T20:13:18.733Z,11.75
2017-11-27T20:15:45.553Z,11.25
2017-11-27T20:18:12.341Z,8.70
2017-11-27T20:20:39.129Z,10.52
2017-11-27T20:23:05.946Z,13.98
2017-11-27T20:25:32.747Z,15.07
2017-11-27T20:27:59.540Z,9.15
2017-11-27T20:30:26.363Z,7.07
2017-11-27T20:32:53.135Z,11.63
2017-11-27T20:35:19.923Z,10.95
2017-11-27T20:37:46.712Z,13.20
2017-11-27T20:40:13.486Z,10.20
2017-11-27T20:42:40.269Z,14.43
2017-11-27T20:45:07.093Z,11.75
2017-11-27T20:47:33.873Z,20.05
2017-11-27T20:50:00.664Z,17.65
2017-11-27T20:52:27.454Z,11.95
2017-11-27T20:54:54.215Z,13.35
2017-11-27T20:57:21.010Z,14.52
2017-11-27T20:59:47.793Z,18.10
2017-11-27T21:02:14.573Z,17.12
2017-11-27T21:04:41.336Z,11.98
2017-11-27T21:07:08.129Z,7.85
2017-11-27T21:09:34.927Z,7.72
2017-11-27T21:12:01.706Z,9.70
2017-11-27T21:14:28.498Z,10.68
2017-11-27T21:16:55.295Z,9.35
2017-11-27T21:19:22.082Z,9.18
2017-11-27T21:21:48.858Z,9.88
2017-11-27T21:24:15.668Z,7.60
2017-11-27T21:26:43.319Z,8.23
2017-11-27T21:29:10.050Z,8.55
2017-11-27T21:31:36.834Z,9.52
2017-11-27T21:34:03.630Z,11.07
2017-11-27T21:36:30.425Z,9.88
2017-11-27T21:38:57.221Z,9.55
2017-11-27T21:41:23.976Z,12.18
2017-11-27T21:43:50.735Z,10.85
2017-11-27T21:46:17.506Z,10.35
2017-11-27T21:48:44.306Z,8.98
2017-11-27T21:51:11.089Z,10.23
2017-11-27T21:53:37.822Z,7.93
2017-11-27T21:56:04.609Z,10.88
2017-11-27T21:58:31.368Z,8.15
2017-11-27T22:00:58.150Z,9.45
2017-11-27T22:03:24.977Z,9.13
2017-11-27T22:05:51.743Z,10.90
2017-11-27T22:08:18.480Z,11.73
2017-11-27T22:10:45.224Z,14.00
2017-11-27T22:13:12.002Z,11.45
2017-11-27T22:15:38.732Z,11.25
2017-11-27T22:18:05.484Z,10.25
2017-11-27T22:20:32.237Z,10.63
2017-11-27T22:22:59.003Z,9.60
2017-11-27T22:25:25.762Z,11.63
2017-11-27T22:27:52.575Z,10.73
2017-11-27T22:30:19.360Z,11.98
2017-11-27T22:32:46.101Z,12.10
2017-11-27T22:35:12.875Z,10.20
2017-11-27T22:37:39.735Z,8.55
2017-11-27T22:40:06.483Z,8.48
2017-11-27T22:42:33.225Z,10.65
2017-11-27T22:44:59.983Z,10.20
2017-11-27T22:47:26.743Z,7.68
2017-11-27T22:49:53.496Z,7.53
2017-11-27T22:52:20.290Z,12.07
2017-11-27T22:54:47.093Z,16.00
2017-11-27T22:57:13.890Z,12.95
2017-11-27T22:59:40.672Z,11.07
2017-11-27T23:02:07.463Z,12.65
2017-11-27T23:04:34.185Z,8.82
2017-11-27T23:07:00.965Z,11.95
2017-11-27T23:09:27.716Z,9.20
2017-11-27T23:11:54.514Z,14.68
2017-11-27T23:14:21.227Z,12.15
2017-11-27T23:16:48.012Z,9.65
2017-11-27T23:19:14.821Z,13.27
2017-11-27T23:21:41.611Z,11.45
2017-11-27T23:24:08.388Z,13.65
2017-11-27T23:26:35.176Z,10.45
2017-11-27T23:29:01.920Z,6.70
2017-11-27T23:31:28.672Z,12.75
2017-11-27T23:33:55.457Z,9.57
2017-11-27T23:36:22.245Z,8.88
2017-11-27T23:38:48.996Z,10.93
2017-11-27T23:41:15.781Z,8.88
2017-11-27T23:43:42.567Z,11.18
2017-11-27T23:46:09.317Z,10.10
2017-11-27T23:48:36.120Z,11.98
2017-11-27T23:51:02.854Z,16.30
2017-11-27T23:53:29.638Z,8.85
2017-11-27T23:55:56.381Z,9.95
2017-11-27T23:58:23.196Z,9.23
